Newburgh, Indiana
Current Conditions -  °F | °C
As of 12:06 AM on Monday 26 Jan 2015 (Local Time) from KEVV Reporting Station
Overcast Overcast  
Wind Chill: 23°   Ceiling: 1000
Heat Index: 33°   Visibility: 10mi
Dew Point: 28°   Wind: 15mph
Humidity: 82%   Direction: 340°NNW
Pressure: 29.86"   Gusts: 26mph
Location:  37.95°N, 87.4°W
Report Text: KEVV 260606Z AUTO 34013G23KT 10SM OVC010 01/M02 A2986 RMK AO2 T00061022
Loading
Personal Weather Stations






























Interactive Weather Map New forecast layout! Learn more

10-Day Weather Forecast

Advertisements
Track Severe Weather on mobile